createdAt,value
2018-08-16T00:02:17.348Z,22.73
2018-08-16T00:07:20.588Z,22.81
2018-08-16T00:12:23.682Z,22.86
2018-08-16T00:17:27.102Z,22.94
2018-08-16T00:22:30.319Z,23.02
2018-08-16T00:27:33.449Z,23.08
2018-08-16T00:32:37.056Z,23.13
2018-08-16T00:37:42.163Z,23.21
2018-08-16T00:42:45.209Z,23.25
2018-08-16T00:47:48.384Z,23.28
2018-08-16T00:52:51.445Z,23.32
2018-08-16T00:57:55.661Z,23.32
2018-08-16T01:02:58.734Z,23.36
2018-08-16T01:08:01.853Z,23.36
2018-08-16T01:13:05.117Z,23.33
2018-08-16T01:18:08.351Z,23.35
2018-08-16T01:23:11.455Z,23.39
2018-08-16T01:28:14.539Z,23.40
2018-08-16T01:33:17.765Z,23.41
2018-08-16T01:38:21.107Z,23.41
2018-08-16T01:43:24.173Z,23.42
2018-08-16T01:48:27.321Z,23.48
2018-08-16T01:53:30.447Z,23.49
2018-08-16T01:58:33.657Z,23.49
2018-08-16T02:03:36.836Z,23.50
2018-08-16T02:08:40.076Z,23.49
2018-08-16T02:13:43.125Z,23.47
2018-08-16T02:18:46.303Z,23.46
2018-08-16T02:23:49.431Z,23.48
2018-08-16T02:28:52.606Z,23.46
2018-08-16T02:33:56.026Z,23.45
2018-08-16T02:38:59.117Z,23.44
2018-08-16T02:44:02.158Z,23.42
2018-08-16T02:49:05.342Z,23.42
2018-08-16T02:54:08.387Z,23.42
2018-08-16T02:59:11.425Z,23.41
2018-08-16T03:04:14.461Z,23.41
2018-08-16T03:09:17.853Z,23.41
2018-08-16T03:14:20.953Z,23.40
2018-08-16T03:19:24.010Z,23.39
2018-08-16T03:24:27.040Z,23.38
2018-08-16T03:29:30.066Z,23.38
2018-08-16T03:34:33.278Z,23.39
2018-08-16T03:39:36.315Z,23.36
2018-08-16T03:44:39.313Z,23.27
2018-08-16T03:49:42.330Z,23.19
2018-08-16T03:54:45.381Z,22.71
2018-08-16T03:59:48.383Z,23.07
2018-08-16T04:04:51.429Z,22.95
2018-08-16T04:09:54.504Z,22.66
2018-08-16T04:14:57.589Z,22.66
2018-08-16T04:20:00.697Z,22.55
2018-08-16T04:25:04.414Z,22.46
2018-08-16T04:30:07.477Z,22.36
2018-08-16T04:35:10.502Z,22.31
2018-08-16T04:40:13.557Z,22.27
2018-08-16T04:45:16.617Z,22.20
2018-08-16T04:50:19.658Z,22.15
2018-08-16T04:55:22.990Z,22.11
2018-08-16T05:00:26.055Z,22.12
2018-08-16T05:05:29.134Z,22.14
2018-08-16T05:10:32.249Z,22.23
2018-08-16T05:15:35.328Z,22.32
2018-08-16T05:20:38.417Z,22.45
2018-08-16T05:25:42.679Z,22.58
2018-08-16T05:30:45.911Z,22.64
2018-08-16T05:35:49.081Z,22.88
2018-08-16T05:40:52.219Z,23.07
2018-08-16T05:45:55.302Z,23.23
2018-08-16T05:50:58.403Z,23.43
2018-08-16T05:56:01.561Z,23.62
2018-08-16T06:01:05.008Z,23.81
2018-08-16T06:06:09.322Z,23.95
2018-08-16T06:11:12.765Z,24.13
2018-08-16T06:16:16.211Z,24.24
2018-08-16T06:21:19.370Z,24.32
2018-08-16T06:26:22.775Z,24.34
2018-08-16T06:31:26.273Z,24.41
2018-08-16T06:36:29.764Z,24.57
2018-08-16T06:41:33.359Z,24.73
2018-08-16T06:46:37.153Z,24.81
2018-08-16T06:51:40.566Z,24.98
2018-08-16T06:56:44.007Z,25.18
2018-08-16T07:01:47.398Z,25.27
2018-08-16T07:06:50.666Z,25.38
2018-08-16T07:11:54.034Z,25.50
2018-08-16T07:16:57.222Z,25.65
2018-08-16T07:22:00.342Z,25.74
2018-08-16T07:27:03.517Z,25.84
2018-08-16T07:32:06.650Z,25.91
2018-08-16T07:37:09.746Z,26.11
2018-08-16T07:42:12.881Z,26.26
2018-08-16T07:47:16.055Z,26.43
2018-08-16T07:52:19.209Z,26.58
2018-08-16T07:57:22.422Z,26.67
2018-08-16T08:02:25.590Z,26.81
2018-08-16T08:07:28.813Z,26.98
2018-08-16T08:12:31.954Z,27.05
2018-08-16T08:17:35.141Z,27.23
2018-08-16T08:22:38.235Z,27.52
2018-08-16T08:27:41.494Z,27.60
2018-08-16T08:32:44.633Z,27.65
2018-08-16T08:38:15.285Z,27.71
2018-08-16T08:43:35.626Z,27.83
2018-08-16T08:48:38.655Z,28.04
2018-08-16T08:54:57.026Z,28.12
2018-08-16T09:00:00.161Z,28.13
2018-08-16T09:05:04.150Z,28.40
2018-08-16T09:11:21.582Z,28.55
2018-08-16T09:16:28.047Z,28.70
2018-08-16T09:21:32.912Z,28.86
2018-08-16T09:26:40.048Z,28.98
2018-08-16T09:32:06.288Z,29.11
2018-08-16T09:37:11.203Z,29.28
2018-08-16T09:42:14.305Z,29.50
2018-08-16T09:47:34.560Z,29.46
2018-08-16T09:52:37.610Z,29.42
2018-08-16T09:57:40.630Z,29.76
2018-08-16T10:02:43.695Z,29.89
2018-08-16T10:07:46.771Z,29.92
2018-08-16T10:12:49.802Z,29.93
2018-08-16T10:17:52.902Z,30.10
2018-08-16T10:22:55.942Z,30.18
2018-08-16T10:27:58.989Z,30.20
2018-08-16T10:33:02.018Z,30.33
2018-08-16T10:38:05.382Z,30.44
2018-08-16T10:43:08.484Z,30.57
2018-08-16T10:48:11.472Z,30.67
2018-08-16T10:53:14.730Z,30.67
2018-08-16T10:58:17.870Z,30.81
2018-08-16T11:03:21.847Z,30.91
2018-08-16T11:08:25.298Z,30.99
2018-08-16T11:13:28.385Z,31.07
2018-08-16T11:18:31.570Z,31.08
2018-08-16T11:23:34.620Z,31.20
2018-08-16T11:28:39.294Z,31.31
2018-08-16T11:33:42.432Z,31.36
2018-08-16T11:38:45.477Z,31.43
2018-08-16T11:43:48.561Z,31.53
2018-08-16T11:48:51.639Z,31.57
2018-08-16T11:53:54.773Z,31.58
2018-08-16T11:58:57.910Z,31.65
2018-08-16T12:04:01.386Z,31.68
2018-08-16T12:09:08.430Z,31.76
2018-08-16T12:14:11.766Z,31.30
2018-08-16T12:19:14.882Z,31.94
2018-08-16T12:24:17.950Z,32.05
2018-08-16T12:29:21.685Z,32.28
2018-08-16T12:34:24.725Z,32.28
2018-08-16T12:39:27.783Z,32.22
2018-08-16T12:44:30.835Z,32.34
2018-08-16T12:49:34.012Z,32.43
2018-08-16T12:54:37.094Z,32.52
2018-08-16T12:59:40.161Z,32.53
2018-08-16T13:04:43.296Z,32.46
2018-08-16T13:09:46.431Z,32.44
2018-08-16T13:14:49.544Z,32.64
2018-08-16T13:19:52.590Z,32.70
2018-08-16T13:24:55.630Z,32.71
2018-08-16T13:29:58.809Z,32.97
2018-08-16T13:35:01.922Z,33.01
2018-08-16T13:40:06.757Z,33.02
2018-08-16T13:45:09.805Z,33.14
2018-08-16T13:50:12.863Z,33.16
2018-08-16T13:55:17.362Z,33.20
2018-08-16T14:00:20.542Z,33.26
2018-08-16T14:05:23.606Z,33.46
2018-08-16T14:10:27.041Z,33.47
2018-08-16T14:15:30.336Z,33.70
2018-08-16T14:20:33.405Z,33.80
2018-08-16T14:25:36.490Z,33.75
2018-08-16T14:30:39.705Z,33.65
2018-08-16T14:35:42.699Z,33.85
2018-08-16T14:40:45.703Z,34.22
2018-08-16T14:45:48.751Z,34.22
2018-08-16T14:50:51.811Z,34.29
2018-08-16T14:55:54.842Z,34.01
2018-08-16T15:00:57.952Z,34.15
2018-08-16T15:06:00.991Z,33.96
2018-08-16T15:11:04.090Z,33.78
2018-08-16T15:16:07.308Z,33.94
2018-08-16T15:21:10.518Z,34.32
2018-08-16T15:26:13.558Z,34.58
2018-08-16T15:31:16.732Z,34.59
2018-08-16T15:36:19.830Z,34.59
2018-08-16T15:41:24.067Z,34.46
2018-08-16T15:46:28.665Z,34.35
2018-08-16T15:51:31.911Z,34.22
2018-08-16T15:56:34.980Z,34.20
2018-08-16T16:01:38.224Z,34.21
2018-08-16T16:06:41.407Z,34.09
2018-08-16T16:11:46.276Z,33.84
2018-08-16T16:16:49.479Z,33.98
2018-08-16T16:21:52.558Z,33.99
2018-08-16T16:26:55.620Z,34.10
2018-08-16T16:32:00.654Z,34.08
2018-08-16T16:37:03.859Z,33.93
2018-08-16T16:42:07.427Z,33.53
2018-08-16T16:47:10.946Z,33.47
2018-08-16T16:52:14.094Z,33.46
2018-08-16T16:57:17.244Z,33.19
2018-08-16T17:02:20.361Z,32.89
2018-08-16T17:07:23.692Z,32.66
2018-08-16T17:12:26.772Z,32.59
2018-08-16T17:17:30.281Z,32.38
2018-08-16T17:22:33.572Z,32.31
2018-08-16T17:27:36.595Z,32.13
2018-08-16T17:32:39.895Z,32.02
2018-08-16T17:37:42.992Z,31.87
2018-08-16T17:42:46.157Z,31.69
2018-08-16T17:47:49.349Z,31.48
2018-08-16T17:52:52.642Z,31.33
2018-08-16T17:57:55.818Z,31.11
2018-08-16T18:02:59.111Z,30.85
2018-08-16T18:08:02.513Z,30.61
2018-08-16T18:13:06.096Z,30.44
2018-08-16T18:18:09.623Z,30.30
2018-08-16T18:23:12.822Z,30.08
2018-08-16T18:28:15.999Z,29.90
2018-08-16T18:33:19.304Z,29.62
2018-08-16T18:38:22.827Z,29.39
2018-08-16T18:43:26.234Z,29.14
2018-08-16T18:48:29.503Z,29.00
2018-08-16T18:53:32.921Z,28.86
2018-08-16T18:58:35.986Z,28.71
2018-08-16T19:03:39.062Z,28.55
2018-08-16T19:08:42.177Z,28.49
2018-08-16T19:13:45.402Z,28.43
2018-08-16T19:18:48.514Z,28.29
2018-08-16T19:23:51.651Z,28.14
2018-08-16T19:28:54.873Z,27.97
2018-08-16T19:33:58.141Z,27.71
2018-08-16T19:39:01.904Z,27.51
2018-08-16T19:44:05.930Z,27.41
2018-08-16T19:49:11.092Z,27.20
2018-08-16T19:54:14.699Z,27.06
2018-08-16T19:59:17.823Z,26.97
2018-08-16T20:04:21.120Z,26.82
2018-08-16T20:09:24.604Z,26.74
2018-08-16T20:14:27.710Z,26.68
2018-08-16T20:19:32.191Z,26.58
2018-08-16T20:24:35.540Z,26.46
2018-08-16T20:29:38.913Z,26.42
2018-08-16T20:34:42.941Z,26.44
2018-08-16T20:39:47.553Z,26.39
2018-08-16T20:44:50.906Z,26.24
2018-08-16T20:49:53.908Z,26.14
2018-08-16T20:54:56.948Z,26.00
2018-08-16T21:00:00.017Z,25.87
2018-08-16T21:05:03.149Z,25.64
2018-08-16T21:10:07.551Z,25.58
2018-08-16T21:15:11.410Z,25.55
2018-08-16T21:20:14.514Z,25.37
2018-08-16T21:25:17.689Z,25.30
2018-08-16T21:30:20.757Z,25.16
2018-08-16T21:35:23.809Z,25.03
2018-08-16T21:40:26.913Z,25.02
2018-08-16T21:45:30.043Z,24.86
2018-08-16T21:50:33.074Z,24.76
2018-08-16T21:55:36.098Z,24.66
2018-08-16T22:00:53.219Z,24.64
2018-08-16T22:05:59.193Z,24.55
2018-08-16T22:11:02.229Z,24.51
2018-08-16T22:16:05.569Z,24.46
2018-08-16T22:21:08.993Z,24.31
2018-08-16T22:26:12.144Z,24.27
2018-08-16T22:31:15.133Z,24.28
2018-08-16T22:36:18.202Z,24.25
2018-08-16T22:41:22.235Z,24.23
2018-08-16T22:46:25.329Z,24.10
2018-08-16T22:51:28.333Z,24.09
2018-08-16T22:56:31.391Z,23.93
2018-08-16T23:01:34.438Z,23.83
2018-08-16T23:06:37.530Z,23.78
2018-08-16T23:11:40.558Z,23.76
2018-08-16T23:16:43.572Z,23.64
2018-08-16T23:21:46.554Z,23.67
2018-08-16T23:26:49.742Z,23.64
2018-08-16T23:31:52.743Z,23.64
2018-08-16T23:36:55.792Z,23.58
2018-08-16T23:41:58.872Z,23.46
2018-08-16T23:47:01.978Z,23.39
2018-08-16T23:52:05.054Z,23.33
2018-08-16T23:57:08.199Z,23.23
